Terminal Aerodrome Forecast
Issued by NWS Caribou, ME

Home | Current Version | Previous Version | Text Only | Print | Product List | Glossary On
Versions: 1 2 3 4 5 6 7 8 9 10 11 12 13 14 15
000
FTUS41 KCAR 290524
TAFBGR
TAF
KBGR 290524Z 2906/3006 00000KT P6SM SCT004 BKN120
      TEMPO 2907/2911 2SM BR OVC004
     FM291300 VRB03KT P6SM SCT015
     FM291500 36005KT P6SM BKN050=

USA.gov is the U.S. government's official web portal to all federal, state and local government web resources and services.